Time;durP1;ratioP1;P1;durP2;ratioP2;P2;SDS_P1;SDS_P2;PMS_P1;PMS_P2;Temp;Humidity;BMP_temperature;BMP_pressure;BME280_temperature;BME280_humidity;BME280_pressure;Samples;Min_cycle;Max_cycle;Signal;HPM_P1;HPM_P2
2021/08/02 05:38:31;;;;;;;;;;;;;;;20.98;47.50;100134.91;5090638;27;19919;-54
2021/08/02 05:41:00;;;;;;;;;;;;;;;20.82;46.83;100137.16;5118015;27;19968;-56
2021/08/02 05:43:27;;;;;;;;;;;;;;;20.67;44.73;100133.78;5088849;28;19934;-57
2021/08/02 05:45:56;;;;;;;;;;;;;;;20.61;45.49;100145.91;5091345;28;19967;-55
2021/08/02 05:48:24;;;;;;;;;;;;;;;20.68;49.62;100136.38;5092279;28;19928;-57
2021/08/02 05:50:53;;;;;;;;;;;;;;;20.74;49.46;100137.75;5091364;28;19935;-53
2021/08/02 05:53:20;;;;;;;;;;;;;;;20.77;48.67;100128.59;5088222;28;19932;-56
2021/08/02 05:55:50;;;;;;;;;;;;;;;20.79;49.72;100130.19;5090216;28;19932;-57
2021/08/02 05:58:18;;;;;;;;;;;;;;;20.66;45.98;100122.22;5087587;28;19931;-56
2021/08/02 06:00:46;;;;;;;;;;;;;;;20.58;46.01;100130.03;5089041;28;19989;-56
2021/08/02 06:03:14;;;;;;;;;;;;;;;20.40;46.64;100129.66;5092263;28;19950;-55
2021/08/02 06:05:42;;;;;;;;;;;;;;;20.33;46.67;100121.22;5090764;28;19932;-56
2021/08/02 06:08:10;;;;;;;;;;;;;;;20.48;47.56;100121.81;5088964;28;19963;-54
2021/08/02 06:10:38;;;;;;;;;;;;;;;20.62;49.59;100125.25;5090062;28;20029;-54
2021/08/02 06:13:07;;;;;;;;;;;;;;;20.69;50.22;100127.34;5088489;28;20462;-56
2021/08/02 06:15:35;;;;;;;;;;;;;;;20.74;50.17;100129.69;5088222;28;20023;-56
2021/08/02 06:18:03;;;;;;;;;;;;;;;20.66;46.08;100132.97;5095145;28;19981;-55
2021/08/02 06:20:31;;;;;;;;;;;;;;;20.64;43.39;100128.69;5089185;28;19928;-56
2021/08/02 06:22:59;;;;;;;;;;;;;;;20.59;42.99;100131.72;5090487;28;19932;-56
2021/08/02 06:25:27;;;;;;;;;;;;;;;20.51;42.89;100126.97;5088682;28;19939;-56
2021/08/02 06:27:55;;;;;;;;;;;;;;;20.50;42.88;100125.25;5087769;28;19978;-56
2021/08/02 06:30:24;;;;;;;;;;;;;;;20.48;43.00;100121.81;5090600;28;19990;-57
2021/08/02 06:32:52;;;;;;;;;;;;;;;20.57;44.76;100125.63;5085168;28;19932;-56
2021/08/02 06:35:20;;;;;;;;;;;;;;;20.66;47.43;100116.84;5090651;28;20215;-56
2021/08/02 06:37:48;;;;;;;;;;;;;;;20.72;48.23;100134.31;5118492;27;20000;-56
2021/08/02 06:40:17;;;;;;;;;;;;;;;20.76;49.52;100129.56;5089298;28;19929;-57
2021/08/02 06:42:44;;;;;;;;;;;;;;;20.78;49.11;100131.16;5090581;28;19931;-58
2021/08/02 06:45:12;;;;;;;;;;;;;;;20.65;43.83;100131.25;5093122;28;19932;-56
2021/08/02 06:47:42;;;;;;;;;;;;;;;20.61;43.42;100128.94;5090278;28;19928;-59
2021/08/02 06:50:10;;;;;;;;;;;;;;;20.53;41.88;100138.44;5074775;28;19963;-54
2021/08/02 06:52:38;;;;;;;;;;;;;;;20.48;41.09;100135.25;5077395;28;20295;-56
2021/08/02 06:55:07;;;;;;;;;;;;;;;20.47;44.60;100133.53;5073602;28;19987;-56
2021/08/02 06:57:36;;;;;;;;;;;;;;;20.61;47.19;100135.16;5071529;28;20010;-56
2021/08/02 07:00:04;;;;;;;;;;;;;;;20.70;47.13;100133.59;5071848;28;19943;-54
2021/08/02 07:02:32;;;;;;;;;;;;;;;20.75;47.75;100135.91;5073293;28;19947;-56
2021/08/02 07:05:02;;;;;;;;;;;;;;;20.69;44.84;100137.22;5072737;28;19938;-53
2021/08/02 07:07:30;;;;;;;;;;;;;;;20.62;42.07;100136.88;5074285;28;19925;-56
2021/08/02 07:09:58;;;;;;;;;;;;;;;20.55;41.89;100141.88;5076730;28;19951;-56
2021/08/02 07:12:26;;;;;;;;;;;;;;;20.50;41.12;100140.50;5074121;28;20785;-57
2021/08/02 07:14:54;;;;;;;;;;;;;;;20.49;40.62;100155.78;5072432;28;19937;-56
2021/08/02 07:17:21;;;;;;;;;;;;;;;20.46;43.91;100149.78;5091284;28;19942;-55
2021/08/02 07:19:50;;;;;;;;;;;;;;;20.60;45.69;100156.78;5078236;28;19981;-56
2021/08/02 07:22:19;;;;;;;;;;;;;;;20.68;46.40;100160.56;5075286;28;19995;-54
2021/08/02 07:24:47;;;;;;;;;;;;;;;20.73;47.84;100157.53;5073834;28;20000;-56
2021/08/02 07:27:14;;;;;;;;;;;;;;;20.76;48.46;100145.69;5069868;28;19936;-56
2021/08/02 07:29:43;;;;;;;;;;;;;;;20.64;42.96;100152.88;5072653;28;19929;-57
2021/08/02 07:32:10;;;;;;;;;;;;;;;20.62;41.26;100152.13;5075299;28;19928;-56
2021/08/02 07:34:38;;;;;;;;;;;;;;;20.53;40.87;100146.50;5072666;28;19935;-58
2021/08/02 07:37:06;;;;;;;;;;;;;;;20.49;40.69;100152.25;5072521;28;19943;-55
2021/08/02 07:39:36;;;;;;;;;;;;;;;20.45;39.97;100150.75;5075144;28;20018;-57
2021/08/02 07:42:05;;;;;;;;;;;;;;;20.47;41.41;100152.34;5071254;28;19929;-57
2021/08/02 07:45:55;;;;;;;;;;;;;;;20.68;44.30;100151.63;5120802;27;19924;-56
2021/08/02 07:48:24;;;;;;;;;;;;;;;20.61;45.41;100151.28;5128714;27;20014;-56
2021/08/02 07:50:52;;;;;;;;;;;;;;;20.62;44.74;100161.06;5131718;27;19934;-54
2021/08/02 07:53:20;;;;;;;;;;;;;;;19.78;44.92;100163.88;5125670;28;19938;-53
2021/08/02 07:55:48;;;;;;;;;;;;;;;19.48;44.13;100156.28;5134563;28;20605;-54
2021/08/02 07:58:16;;;;;;;;;;;;;;;19.32;43.66;100160.09;5121442;28;19928;-55
2021/08/02 08:00:43;;;;;;;;;;;;;;;19.86;45.38;100157.97;5118620;27;19992;-55
2021/08/02 08:03:13;;;;;;;;;;;;;;;20.18;45.71;100160.84;5131415;27;20464;-54
2021/08/02 08:05:42;;;;;;;;;;;;;;;20.37;45.54;100173.72;5118512;28;19999;-55
2021/08/02 08:08:10;;;;;;;;;;;;;;;20.44;47.16;100157.97;5132525;28;19924;-54
2021/08/02 08:10:38;;;;;;;;;;;;;;;19.82;44.21;100161.84;5123394;27;19992;-56
2021/08/02 08:13:07;;;;;;;;;;;;;;;19.31;42.74;100155.69;5127370;28;19942;-52
2021/08/02 08:15:35;;;;;;;;;;;;;;;19.30;43.06;100159.34;5126834;28;19989;-55
2021/08/02 08:18:03;;;;;;;;;;;;;;;19.50;45.16;100159.69;5131588;28;19993;-55
2021/08/02 08:20:32;;;;;;;;;;;;;;;20.06;45.64;100169.84;5130315;28;19924;-53
2021/08/02 08:23:00;;;;;;;;;;;;;;;20.34;45.73;100163.22;5119660;28;20007;-56
2021/08/02 08:25:28;;;;;;;;;;;;;;;20.53;45.35;100165.31;5119595;28;19947;-54
2021/08/02 08:27:56;;;;;;;;;;;;;;;20.61;45.58;100166.56;5118879;28;19928;-56
2021/08/02 08:30:24;;;;;;;;;;;;;;;19.76;43.48;100165.81;5121809;28;19928;-53
2021/08/02 08:32:53;;;;;;;;;;;;;;;19.57;45.23;100159.13;5128421;28;19998;-55
2021/08/02 08:35:20;;;;;;;;;;;;;;;19.36;43.29;100161.59;5122156;28;19954;-57
2021/08/02 08:37:50;;;;;;;;;;;;;;;19.24;43.61;100162.50;5118723;27;19928;-56
2021/08/02 08:40:18;;;;;;;;;;;;;;;19.85;43.89;100165.13;5127763;27;20387;-56
2021/08/02 08:42:47;;;;;;;;;;;;;;;20.26;45.99;100171.00;5121522;28;19931;-56
2021/08/02 08:45:15;;;;;;;;;;;;;;;20.50;45.38;100157.50;5119051;28;19928;-56
2021/08/02 08:47:44;;;;;;;;;;;;;;;20.69;45.41;100162.28;5123360;27;19953;-57
2021/08/02 08:50:12;;;;;;;;;;;;;;;20.68;45.30;100157.00;5120461;27;19970;-49
2021/08/02 08:52:40;;;;;;;;;;;;;;;19.83;43.41;100163.53;5121167;27;20361;-47
2021/08/02 08:55:11;;;;;;;;;;;;;;;19.49;43.05;100166.03;5119267;27;20058;-53
2021/08/02 08:57:39;;;;;;;;;;;;;;;19.31;43.26;100162.91;5107392;27;19931;-57
2021/08/02 09:00:18;;;;;;;;;;;;;;;19.25;43.12;100164.19;5105782;27;19935;-57
2021/08/02 09:02:46;;;;;;;;;;;;;;;19.17;42.49;100166.56;5114328;27;20138;-59
2021/08/02 09:05:15;;;;;;;;;;;;;;;19.18;42.22;100170.97;5109241;27;19924;-57
2021/08/02 09:07:44;;;;;;;;;;;;;;;19.32;43.57;100170.81;5111076;27;20051;-56
2021/08/02 09:10:14;;;;;;;;;;;;;;;21.95;38.43;100171.00;5110274;27;19935;-55
2021/08/02 09:12:49;;;;;;;;;;;;;;;21.22;41.78;100164.34;5105767;27;19963;-60
2021/08/02 09:15:17;;;;;;;;;;;;;;;21.01;42.83;100163.38;5112159;27;20484;-60
2021/08/02 09:17:45;;;;;;;;;;;;;;;20.90;42.92;100175.00;5107216;27;20457;-59
2021/08/02 09:20:23;;;;;;;;;;;;;;;20.10;44.33;100182.06;5105995;27;19927;-61
2021/08/02 09:22:52;;;;;;;;;;;;;;;20.01;44.95;100180.94;5109546;27;19924;-64
2021/08/02 09:25:24;;;;;;;;;;;;;;;19.49;45.28;100179.44;5109918;27;20017;-55
2021/08/02 09:27:53;;;;;;;;;;;;;;;19.43;45.85;100183.44;5108638;27;20676;-61
2021/08/02 09:30:21;;;;;;;;;;;;;;;19.48;46.11;100183.97;5108243;27;19928;-61
2021/08/02 09:32:51;;;;;;;;;;;;;;;19.60;43.72;100189.41;5112503;27;19952;-64
2021/08/02 09:35:29;;;;;;;;;;;;;;;19.94;44.55;100194.97;5108697;27;19927;-59
2021/08/02 09:37:58;;;;;;;;;;;;;;;20.37;44.77;100184.47;5110441;27;19963;-57
2021/08/02 09:40:27;;;;;;;;;;;;;;;20.63;44.87;100191.44;5108494;27;19973;-57
2021/08/02 09:42:56;;;;;;;;;;;;;;;20.75;45.52;100193.22;5109759;27;19993;-58
2021/08/02 09:45:45;;;;;;;;;;;;;;;20.87;45.59;100204.84;5108707;27;19928;-63
2021/08/02 09:48:17;;;;;;;;;;;;;;;20.96;45.76;100203.22;5108802;27;19980;-62
2021/08/02 09:50:47;;;;;;;;;;;;;;;21.01;45.60;100206.41;5106639;27;19927;-56
2021/08/02 09:53:15;;;;;;;;;;;;;;;21.05;44.39;100207.88;5108421;27;19936;-58
2021/08/02 09:55:45;;;;;;;;;;;;;;;21.04;44.79;100208.88;5108388;27;19932;-64
2021/08/02 09:58:18;;;;;;;;;;;;;;;21.01;44.48;100219.84;5107254;27;19927;-62
2021/08/02 10:00:46;;;;;;;;;;;;;;;21.01;45.18;100220.72;5109892;27;20594;-64
2021/08/02 10:03:15;;;;;;;;;;;;;;;21.02;45.11;100230.47;5106767;27;19996;-66
2021/08/02 10:05:44;;;;;;;;;;;;;;;21.03;45.00;100240.25;5108619;27;19932;-63
2021/08/02 10:08:30;;;;;;;;;;;;;;;21.01;45.26;100246.72;5103043;28;19991;-65
2021/08/02 10:10:59;;;;;;;;;;;;;;;21.03;45.72;100242.09;5107085;27;19932;-60
2021/08/02 10:13:29;;;;;;;;;;;;;;;21.08;45.26;100241.72;5108234;27;19944;-62
2021/08/02 10:15:57;;;;;;;;;;;;;;;21.05;45.14;100240.13;5109887;27;20364;-59
2021/08/02 10:18:26;;;;;;;;;;;;;;;21.06;45.11;100247.22;5109610;28;20417;-64
2021/08/02 10:21:02;;;;;;;;;;;;;;;21.10;45.63;100247.84;5107391;27;19934;-63
2021/08/02 10:23:31;;;;;;;;;;;;;;;21.18;46.28;100256.16;5137098;27;20387;-58
2021/08/02 10:26:00;;;;;;;;;;;;;;;21.17;46.00;100260.69;5099049;28;19928;-57
2021/08/02 10:28:29;;;;;;;;;;;;;;;21.18;46.44;100254.34;5102773;28;19975;-58
2021/08/02 10:31:04;;;;;;;;;;;;;;;21.17;46.48;100257.13;5106298;28;20556;-58
2021/08/02 10:33:33;;;;;;;;;;;;;;;21.16;45.79;100256.28;5104818;28;21615;-58
2021/08/02 10:36:11;;;;;;;;;;;;;;;21.15;46.45;100257.25;5101850;27;19935;-57
2021/08/02 10:38:40;;;;;;;;;;;;;;;21.18;46.37;100253.47;5102815;28;19974;-58
2021/08/02 10:41:10;;;;;;;;;;;;;;;21.22;46.25;100249.53;5101367;28;19932;-60
2021/08/02 10:43:38;;;;;;;;;;;;;;;;;;5101781;28;20023;-55
2021/08/02 10:46:16;;;;;;;;;;;;;;;21.21;45.91;100254.06;5104229;28;19924;-61
2021/08/02 10:48:45;;;;;;;;;;;;;;;21.23;46.15;100249.44;5103740;28;19924;-60
2021/08/02 10:51:13;;;;;;;;;;;;;;;21.26;46.50;100258.22;5108201;28;19924;-61
2021/08/02 10:53:42;;;;;;;;;;;;;;;21.26;46.47;100259.06;5114154;27;19928;-60
2021/08/02 10:56:11;;;;;;;;;;;;;;;21.26;46.58;100258.22;5104030;28;19931;-60
2021/08/02 10:58:43;;;;;;;;;;;;;;;21.28;46.24;100269.72;5102736;28;19927;-57
2021/08/02 11:01:12;;;;;;;;;;;;;;;21.34;47.42;100264.72;5103369;28;19923;-58
2021/08/02 11:03:41;;;;;;;;;;;;;;;21.45;47.38;100252.22;5105359;28;20519;-57
2021/08/02 11:06:29;;;;;;;;;;;;;;;21.62;46.68;100256.28;5104313;28;20056;-59
2021/08/02 11:08:58;;;;;;;;;;;;;;;21.75;46.39;100261.47;5105175;28;20410;-59
2021/08/02 11:11:44;;;;;;;;;;;;;;;21.67;46.31;100260.28;5105351;28;20471;-59
2021/08/02 11:14:12;;;;;;;;;;;;;;;21.82;46.22;100247.38;5102775;27;19931;-55
2021/08/02 11:16:41;;;;;;;;;;;;;;;21.95;45.94;100246.38;5103404;28;19965;-56
2021/08/02 11:19:16;;;;;;;;;;;;;;;21.84;46.02;100258.91;5104638;28;19950;-60
2021/08/02 11:21:46;;;;;;;;;;;;;;;21.93;46.09;100257.28;5102160;28;19935;-59
2021/08/02 11:24:14;;;;;;;;;;;;;;;21.75;47.36;100265.03;5107759;28;19942;-59
2021/08/02 11:26:53;;;;;;;;;;;;;;;21.67;47.53;100275.59;5102192;28;19931;-60
2021/08/02 11:29:22;;;;;;;;;;;;;;;21.66;46.96;100269.34;5103398;28;19932;-59
2021/08/02 11:31:54;;;;;;;;;;;;;;;21.80;47.07;100276.28;5102582;28;19969;-62
2021/08/02 11:34:22;;;;;;;;;;;;;;;21.75;47.44;100283.88;5104948;28;19932;-62
2021/08/02 11:37:00;;;;;;;;;;;;;;;21.79;47.10;100289.88;5104577;28;20019;-61
2021/08/02 11:39:29;;;;;;;;;;;;;;;21.84;46.91;100274.19;5105061;28;19995;-60
2021/08/02 11:42:02;;;;;;;;;;;;;;;21.76;46.92;100293.69;5100036;28;19931;-61
2021/08/02 11:44:30;;;;;;;;;;;;;;;21.99;46.72;100288.22;5103434;28;19963;-60
2021/08/02 11:46:59;;;;;;;;;;;;;;;22.15;46.14;100294.03;5099636;28;20047;-61
2021/08/02 11:49:28;;;;;;;;;;;;;;;22.18;46.28;100296.50;5104988;28;20018;-63
2021/08/02 11:51:56;;;;;;;;;;;;;;;22.26;45.65;100298.53;5104347;28;19939;-63
2021/08/02 11:54:25;;;;;;;;;;;;;;;22.26;46.28;100303.94;5103140;28;19928;-60
2021/08/02 11:56:53;;;;;;;;;;;;;;;22.17;46.44;100310.09;5100570;28;19940;-61
2021/08/02 11:59:23;;;;;;;;;;;;;;;22.32;45.92;100308.78;5103522;28;20023;-63
2021/08/02 12:01:52;;;;;;;;;;;;;;;22.11;46.59;100314.13;5100276;28;19932;-62
2021/08/02 12:04:21;;;;;;;;;;;;;;;22.20;45.50;100313.38;5103412;28;19966;-63
2021/08/02 12:06:53;;;;;;;;;;;;;;;22.19;44.87;100313.50;5106169;28;20054;-63
2021/08/02 12:09:32;;;;;;;;;;;;;;;22.08;44.79;100322.47;5103792;28;20018;-63
2021/08/02 12:12:01;;;;;;;;;;;;;;;22.09;45.04;100324.19;5103072;28;19943;-59
2021/08/02 12:14:32;;;;;;;;;;;;;;;22.04;45.34;100332.63;5100722;28;19928;-64
2021/08/02 12:17:05;;;;;;;;;;;;;;;21.97;45.85;100335.97;5101366;28;20592;-59
2021/08/02 12:19:47;;;;;;;;;;;;;;;21.94;45.85;100330.84;5101222;28;19931;-58
2021/08/02 12:22:22;;;;;;;;;;;;;;;21.94;45.68;100331.69;5105519;28;19927;-60
2021/08/02 12:24:51;;;;;;;;;;;;;;;21.95;45.57;100343.31;5102987;28;19927;-60
2021/08/02 12:27:20;;;;;;;;;;;;;;;22.00;45.42;100335.72;5104753;28;19928;-61
2021/08/02 12:30:00;;;;;;;;;;;;;;;22.10;46.01;100350.13;5105429;28;19932;-63
2021/08/02 12:32:38;;;;;;;;;;;;;;;22.26;45.00;100341.66;5105461;28;19973;-59
2021/08/02 12:35:08;;;;;;;;;;;;;;;22.17;45.29;100353.19;5107978;28;19965;-62
2021/08/02 12:37:36;;;;;;;;;;;;;;;22.18;45.18;100344.97;5106940;28;19950;-63
2021/08/02 12:40:07;;;;;;;;;;;;;;;22.16;45.43;100356.84;5107754;27;19932;-60
2021/08/02 12:42:35;;;;;;;;;;;;;;;22.20;45.22;100351.06;5106803;28;19930;-59
2021/08/02 12:45:06;;;;;;;;;;;;;;;22.39;44.98;100354.97;5104282;28;19935;-59
2021/08/02 12:47:52;;;;;;;;;;;;;;;22.50;44.48;100360.31;5105148;28;19928;-59
2021/08/02 12:50:21;;;;;;;;;;;;;;;22.52;44.15;100362.88;5104834;28;19932;-57
2021/08/02 12:52:49;;;;;;;;;;;;;;;22.46;44.07;100356.19;5106324;28;19931;-56
2021/08/02 12:55:18;;;;;;;;;;;;;;;22.52;43.85;100368.28;5106550;28;19930;-59
2021/08/02 12:57:46;;;;;;;;;;;;;;;22.43;43.83;100369.03;5102774;28;19928;-59
2021/08/02 13:00:18;;;;;;;;;;;;;;;22.49;43.76;100368.53;5104893;27;20015;-59
2021/08/02 13:02:49;;;;;;;;;;;;;;;22.51;44.08;100367.44;5108214;28;19924;-58
2021/08/02 13:05:17;;;;;;;;;;;;;;;22.62;44.00;100376.44;5105396;28;19986;-55
2021/08/02 13:07:45;;;;;;;;;;;;;;;22.54;44.50;100377.94;5106626;28;19939;-59
2021/08/02 13:10:13;;;;;;;;;;;;;;;22.62;44.33;100371.06;5109109;28;19993;-58
2021/08/02 13:12:41;;;;;;;;;;;;;;;22.56;45.26;100372.41;5104993;28;19992;-58
2021/08/02 13:15:10;;;;;;;;;;;;;;;22.52;44.96;100382.63;5107624;28;19966;-60
2021/08/02 13:17:40;;;;;;;;;;;;;;;22.60;44.67;100383.78;5105314;28;20438;-64
2021/08/02 13:20:10;;;;;;;;;;;;;;;22.68;44.25;100390.28;5106895;28;19966;-58
2021/08/02 13:22:46;;;;;;;;;;;;;;;22.70;44.13;100390.13;5104992;28;19931;-62
2021/08/02 13:27:59;;;;;;;;;;;;;;;22.78;44.11;100393.03;5103197;28;20003;-59
2021/08/02 13:30:27;;;;;;;;;;;;;;;22.68;44.96;100394.78;5105726;28;19934;-61
2021/08/02 13:32:57;;;;;;;;;;;;;;;22.74;44.79;100390.75;5103428;28;19931;-61
2021/08/02 13:35:25;;;;;;;;;;;;;;;22.74;44.67;100388.88;5105231;27;19978;-61
2021/08/02 13:37:53;;;;;;;;;;;;;;;22.78;44.81;100395.72;5106356;27;19932;-62
2021/08/02 13:40:21;;;;;;;;;;;;;;;22.84;44.65;100387.13;5108707;28;19928;-56
2021/08/02 13:43:04;;;;;;;;;;;;;;;22.91;44.57;100395.53;5104821;28;20000;-62
2021/08/02 13:45:35;;;;;;;;;;;;;;;22.92;44.77;100404.50;5110770;28;19928;-61
2021/08/02 13:48:05;;;;;;;;;;;;;;;22.90;44.52;100399.22;5105192;28;19946;-55
2021/08/02 13:50:33;;;;;;;;;;;;;;;22.93;44.10;100403.50;5106583;28;19923;-58
2021/08/02 13:53:01;;;;;;;;;;;;;;;22.86;44.71;100401.34;5101342;28;19930;-59
2021/08/02 13:55:30;;;;;;;;;;;;;;;22.85;45.03;100405.03;5102265;28;19934;-61
2021/08/02 13:57:59;;;;;;;;;;;;;;;22.86;44.94;100408.56;5105881;28;19980;-61
2021/08/02 14:00:26;;;;;;;;;;;;;;;22.91;44.44;100413.56;5106525;27;19924;-62
2021/08/02 14:02:54;;;;;;;;;;;;;;;22.91;43.87;100414.41;5106553;28;19950;-59
2021/08/02 14:05:24;;;;;;;;;;;;;;;22.91;43.82;100409.03;5105089;27;20073;-61
2021/08/02 14:07:52;;;;;;;;;;;;;;;22.94;43.74;100411.44;5107581;28;19930;-63
2021/08/02 14:10:20;;;;;;;;;;;;;;;22.96;43.88;100417.59;5105534;28;19932;-62
2021/08/02 14:12:50;;;;;;;;;;;;;;;22.96;43.94;100406.78;5103066;28;19990;-61
2021/08/02 14:15:18;;;;;;;;;;;;;;;22.96;44.06;100406.78;5102042;28;21251;-66
2021/08/02 14:17:52;;;;;;;;;;;;;;;22.94;43.85;100408.75;5106472;28;19928;-66
2021/08/02 14:20:20;;;;;;;;;;;;;;;22.91;43.87;100408.19;5108180;28;19950;-63
2021/08/02 14:22:50;;;;;;;;;;;;;;;22.96;43.63;100419.44;5104254;28;19929;-63
2021/08/02 14:25:18;;;;;;;;;;;;;;;22.96;43.78;100409.50;5105772;28;19924;-56
2021/08/02 14:27:46;;;;;;;;;;;;;;;23.00;43.76;100423.59;5106711;28;19978;-56
2021/08/02 14:30:14;;;;;;;;;;;;;;;23.02;43.91;100426.97;5102567;28;19936;-59
2021/08/02 14:32:43;;;;;;;;;;;;;;;23.00;44.00;100424.44;5102252;28;19938;-58
2021/08/02 14:35:12;;;;;;;;;;;;;;;22.95;43.94;100423.97;5104818;28;19928;-65
2021/08/02 14:37:41;;;;;;;;;;;;;;;22.98;43.77;100426.41;5103114;28;19932;-65
2021/08/02 14:40:12;;;;;;;;;;;;;;;23.04;43.61;100431.25;5104205;28;20067;-60
2021/08/02 14:42:43;;;;;;;;;;;;;;;23.07;43.68;100432.84;5105260;28;19940;-61
2021/08/02 14:45:12;;;;;;;;;;;;;;;23.09;43.69;100440.81;5104602;28;19928;-62
2021/08/02 14:47:40;;;;;;;;;;;;;;;23.06;44.07;100433.84;5106321;28;20030;-62
2021/08/02 14:50:09;;;;;;;;;;;;;;;23.07;43.98;100445.50;5112630;28;19991;-61
2021/08/02 14:52:38;;;;;;;;;;;;;;;23.07;43.76;100442.78;5110612;28;20675;-61
2021/08/02 14:55:08;;;;;;;;;;;;;;;23.01;43.76;100444.19;5103451;28;19987;-62
2021/08/02 14:57:40;;;;;;;;;;;;;;;23.03;43.48;100455.69;5104255;28;19932;-62
2021/08/02 15:00:09;;;;;;;;;;;;;;;23.03;43.47;100456.56;5109387;28;19973;-62
2021/08/02 15:02:38;;;;;;;;;;;;;;;23.06;43.43;100452.75;5107506;28;20015;-61
2021/08/02 15:05:08;;;;;;;;;;;;;;;23.08;43.36;100458.84;5104695;28;20008;-61
2021/08/02 15:07:36;;;;;;;;;;;;;;;23.09;43.74;100459.69;5112296;28;19924;-62
2021/08/02 15:10:05;;;;;;;;;;;;;;;23.04;43.82;100460.94;5109681;28;19924;-61
2021/08/02 15:12:33;;;;;;;;;;;;;;;23.05;43.67;100461.81;5108163;28;19923;-61
2021/08/02 15:15:03;;;;;;;;;;;;;;;23.08;43.66;100463.41;5102936;28;20030;-61
2021/08/02 15:17:34;;;;;;;;;;;;;;;23.08;43.82;100468.78;5109141;28;19939;-61
2021/08/02 15:20:04;;;;;;;;;;;;;;;23.11;43.86;100465.81;5108146;28;19950;-61
2021/08/02 15:22:34;;;;;;;;;;;;;;;23.10;43.88;100473.06;5101865;28;20323;-61
2021/08/02 15:25:04;;;;;;;;;;;;;;;23.09;43.82;100475.88;5103737;28;19928;-61
2021/08/02 15:27:33;;;;;;;;;;;;;;;23.07;43.62;100472.47;5118821;28;19924;-61
2021/08/02 15:30:05;;;;;;;;;;;;;;;23.05;43.38;100478.00;5108242;28;19941;-61
2021/08/02 15:32:38;;;;;;;;;;;;;;;23.06;43.25;100471.63;5106113;28;19924;-61
2021/08/02 15:35:07;;;;;;;;;;;;;;;23.09;43.14;100487.53;5113413;28;19934;-61
2021/08/02 15:37:35;;;;;;;;;;;;;;;23.10;43.37;100477.59;5116869;27;19953;-61
2021/08/02 15:40:04;;;;;;;;;;;;;;;23.11;43.55;100480.16;5105684;28;19924;-61
2021/08/02 15:42:32;;;;;;;;;;;;;;;23.10;43.61;100494.66;5105799;28;19928;-61
2021/08/02 15:45:03;;;;;;;;;;;;;;;23.08;43.65;100490.38;5106007;28;19947;-62
2021/08/02 15:47:33;;;;;;;;;;;;;;;23.01;43.37;100490.03;5104992;28;20280;-62
2021/08/02 15:50:03;;;;;;;;;;;;;;;23.04;43.28;100487.91;5110685;28;20347;-61
2021/08/02 15:52:33;;;;;;;;;;;;;;;23.10;43.22;100489.25;5104538;28;20044;-61
2021/08/02 15:55:05;;;;;;;;;;;;;;;23.09;43.20;100484.84;5103315;28;19935;-61
2021/08/02 15:57:35;;;;;;;;;;;;;;;23.10;43.45;100486.56;5106054;28;19942;-62
2021/08/02 16:00:05;;;;;;;;;;;;;;;23.10;43.57;100491.94;5111752;28;19963;-62
2021/08/02 16:02:49;;;;;;;;;;;;;;;23.10;43.53;100502.75;5114288;28;19927;-61
2021/08/02 16:05:20;;;;;;;;;;;;;;;23.10;43.43;100499.16;5101050;28;19995;-61
2021/08/02 16:07:49;;;;;;;;;;;;;;;23.11;43.66;100506.28;5108540;28;19930;-61
2021/08/02 16:10:19;;;;;;;;;;;;;;;23.07;43.85;100505.69;5110033;28;19932;-58
2021/08/02 16:12:49;;;;;;;;;;;;;;;20.78;52.73;100509.28;5109324;27;19928;-61
2021/08/02 16:15:18;;;;;;;;;;;;;;;20.14;54.40;100510.28;5106766;27;19927;-60
2021/08/02 16:17:49;;;;;;;;;;;;;;;19.93;54.24;100507.28;5105339;27;19959;-62
2021/08/02 16:20:17;;;;;;;;;;;;;;;19.89;53.75;100501.28;5102939;27;19936;-61
2021/08/02 16:22:45;;;;;;;;;;;;;;;20.20;52.11;100512.53;5103928;27;20077;-60
2021/08/02 16:25:14;;;;;;;;;;;;;;;20.31;50.99;100507.22;5112775;27;19924;-61
2021/08/02 16:27:42;;;;;;;;;;;;;;;20.14;50.75;100516.50;5103381;27;19931;-60
2021/08/02 16:30:12;;;;;;;;;;;;;;;20.30;49.78;100523.47;5101312;27;22036;-62
2021/08/02 16:32:40;;;;;;;;;;;;;;;20.36;48.76;100515.81;5105507;27;20110;-61
2021/08/02 16:35:11;;;;;;;;;;;;;;;20.39;48.07;100515.59;5107188;27;19931;-60
2021/08/02 16:37:39;;;;;;;;;;;;;;;20.36;47.62;100513.13;5109061;27;19928;-62
2021/08/02 16:40:08;;;;;;;;;;;;;;;20.19;47.78;100525.06;5107970;27;19928;-61
2021/08/02 16:42:36;;;;;;;;;;;;;;;20.23;46.99;100515.81;5100371;27;19939;-63
2021/08/02 16:45:05;;;;;;;;;;;;;;;20.27;46.43;100519.16;5118328;27;19928;-63
2021/08/02 16:47:33;;;;;;;;;;;;;;;20.16;46.79;100525.31;5106886;27;19927;-62
2021/08/02 16:50:02;;;;;;;;;;;;;;;20.15;46.07;100523.59;5107972;27;19931;-62
2021/08/02 16:52:32;;;;;;;;;;;;;;;19.93;44.69;100520.72;5097899;27;19936;-59
2021/08/02 16:55:00;;;;;;;;;;;;;;;19.88;44.66;100521.03;5105711;27;19928;-60
2021/08/02 16:57:28;;;;;;;;;;;;;;;19.89;43.63;100525.44;5100958;27;19983;-59
2021/08/02 16:59:56;;;;;;;;;;;;;;;19.76;43.73;100527.22;5101320;28;20009;-60
2021/08/02 17:02:24;;;;;;;;;;;;;;;19.95;45.68;100533.06;5105433;27;20481;-59
2021/08/02 17:04:52;;;;;;;;;;;;;;;19.96;46.59;100531.22;5104360;27;19954;-59
2021/08/02 17:07:20;;;;;;;;;;;;;;;19.94;47.07;100533.19;5115844;27;19930;-59
2021/08/02 17:09:50;;;;;;;;;;;;;;;19.93;47.44;100534.97;5106615;28;19935;-59
2021/08/02 17:12:18;;;;;;;;;;;;;;;19.85;47.77;100540.88;5106979;28;19924;-59
2021/08/02 17:14:46;;;;;;;;;;;;;;;19.69;48.52;100535.69;5100263;27;19935;-56
2021/08/02 17:17:14;;;;;;;;;;;;;;;19.62;48.69;100536.22;5098138;27;19935;-58
2021/08/02 17:19:42;;;;;;;;;;;;;;;19.67;48.44;100547.50;5100861;27;19974;-62
2021/08/02 17:22:10;;;;;;;;;;;;;;;19.49;47.99;100533.50;5096042;27;19932;-61
2021/08/02 17:24:38;;;;;;;;;;;;;;;19.64;47.57;100539.66;5095227;27;19995;-62
2021/08/02 17:27:09;;;;;;;;;;;;;;;19.68;46.99;100535.81;5088702;27;19950;-61
2021/08/02 17:29:39;;;;;;;;;;;;;;;19.68;46.53;100539.34;5103545;28;19978;-62
2021/08/02 17:32:09;;;;;;;;;;;;;;;19.66;46.34;100543.09;5101134;28;20002;-62
2021/08/02 17:34:38;;;;;;;;;;;;;;;19.76;45.66;100541.50;5102718;28;19931;-62
2021/08/02 17:37:06;;;;;;;;;;;;;;;19.69;45.92;100540.22;5098589;28;20059;-61
2021/08/02 17:39:34;;;;;;;;;;;;;;;19.62;45.80;100542.47;5095263;27;19932;-63
2021/08/02 17:42:02;;;;;;;;;;;;;;;19.37;46.24;100544.13;5100726;27;19932;-62
2021/08/02 17:44:31;;;;;;;;;;;;;;;19.45;45.93;100543.63;5103173;28;20031;-62
2021/08/02 17:47:00;;;;;;;;;;;;;;;19.37;46.04;100549.50;5104424;27;19931;-62
2021/08/02 17:49:28;;;;;;;;;;;;;;;19.38;45.71;100553.03;5103344;27;19935;-62
2021/08/02 17:51:56;;;;;;;;;;;;;;;19.44;45.41;100549.94;5097996;27;19932;-61
2021/08/02 17:54:24;;;;;;;;;;;;;;;19.36;45.30;100557.66;5100988;28;19927;-61
2021/08/02 17:56:52;;;;;;;;;;;;;;;19.40;45.36;100562.69;5100450;27;20023;-61
2021/08/02 17:59:20;;;;;;;;;;;;;;;19.33;45.51;100564.09;5103315;28;20016;-62
2021/08/02 18:01:49;;;;;;;;;;;;;;;19.33;45.41;100564.09;5100026;28;19927;-63
2021/08/02 18:04:18;;;;;;;;;;;;;;;19.35;45.13;100567.50;5102872;28;19932;-61
2021/08/02 18:06:46;;;;;;;;;;;;;;;19.25;44.80;100571.75;5117562;27;20043;-61
2021/08/02 18:09:14;;;;;;;;;;;;;;;19.16;43.87;100567.00;5105326;27;19935;-61
2021/08/02 18:11:43;;;;;;;;;;;;;;;18.91;43.41;100572.19;5101623;27;19939;-61
2021/08/02 18:14:11;;;;;;;;;;;;;;;18.78;43.30;100578.38;5108291;27;19951;-61
2021/08/02 18:16:39;;;;;;;;;;;;;;;18.83;43.76;100579.84;5103759;27;20061;-61
2021/08/02 18:19:10;;;;;;;;;;;;;;;19.13;44.10;100584.16;5101047;27;19952;-61
2021/08/02 18:21:38;;;;;;;;;;;;;;;19.38;42.44;100580.72;5105306;27;19934;-61
2021/08/02 18:24:06;;;;;;;;;;;;;;;19.46;41.53;100582.88;5103819;27;19940;-61
2021/08/02 18:26:36;;;;;;;;;;;;;;;19.61;41.14;100585.47;5107367;27;19928;-61
2021/08/02 18:29:04;;;;;;;;;;;;;;;19.53;41.90;100583.34;5102482;27;20381;-62
2021/08/02 18:31:32;;;;;;;;;;;;;;;19.39;43.76;100587.78;5105772;27;20746;-62